sensor_id;sensor_type;location;lat;lon;timestamp;P1;durP1;ratioP1;P2;durP2;ratioP2
32649;SDS011;19055;51.064;3.712;2022-09-09T00:07:40;5.97;;;1.80;;
32649;SDS011;19055;51.064;3.712;2022-09-09T00:12:48;11.73;;;3.10;;
32649;SDS011;19055;51.064;3.712;2022-09-09T00:15:23;4.90;;;2.45;;
32649;SDS011;19055;51.064;3.712;2022-09-09T00:17:59;8.30;;;3.22;;
32649;SDS011;19055;51.064;3.712;2022-09-09T00:23:35;5.90;;;2.63;;
32649;SDS011;19055;51.064;3.712;2022-09-09T00:31:32;5.32;;;2.03;;
32649;SDS011;19055;51.064;3.712;2022-09-09T00:34:00;8.27;;;2.60;;
32649;SDS011;19055;51.064;3.712;2022-09-09T00:36:38;7.05;;;2.20;;
32649;SDS011;19055;51.064;3.712;2022-09-09T00:39:05;6.18;;;2.35;;
32649;SDS011;19055;51.064;3.712;2022-09-09T00:44:34;6.05;;;2.05;;
32649;SDS011;19055;51.064;3.712;2022-09-09T00:47:04;3.88;;;2.00;;
32649;SDS011;19055;51.064;3.712;2022-09-09T00:50:11;8.10;;;2.97;;
32649;SDS011;19055;51.064;3.712;2022-09-09T00:58:16;8.48;;;3.22;;
32649;SDS011;19055;51.064;3.712;2022-09-09T01:00:43;8.02;;;2.55;;
32649;SDS011;19055;51.064;3.712;2022-09-09T01:17:24;4.00;;;1.73;;
32649;SDS011;19055;51.064;3.712;2022-09-09T01:28:38;5.63;;;1.67;;
32649;SDS011;19055;51.064;3.712;2022-09-09T01:31:11;4.30;;;1.38;;
32649;SDS011;19055;51.064;3.712;2022-09-09T01:33:43;4.57;;;1.50;;
32649;SDS011;19055;51.064;3.712;2022-09-09T01:38:58;5.72;;;2.13;;
32649;SDS011;19055;51.064;3.712;2022-09-09T01:41:24;6.50;;;1.80;;
32649;SDS011;19055;51.064;3.712;2022-09-09T01:44:10;4.57;;;1.60;;
32649;SDS011;19055;51.064;3.712;2022-09-09T01:46:39;5.18;;;1.75;;
32649;SDS011;19055;51.064;3.712;2022-09-09T01:49:10;7.13;;;1.70;;
32649;SDS011;19055;51.064;3.712;2022-09-09T01:51:36;6.28;;;1.67;;
32649;SDS011;19055;51.064;3.712;2022-09-09T01:54:07;6.50;;;1.80;;
32649;SDS011;19055;51.064;3.712;2022-09-09T01:56:54;5.97;;;1.80;;
32649;SDS011;19055;51.064;3.712;2022-09-09T02:10:21;3.35;;;1.55;;
32649;SDS011;19055;51.064;3.712;2022-09-09T02:13:09;4.85;;;1.75;;
32649;SDS011;19055;51.064;3.712;2022-09-09T02:15:57;6.32;;;1.60;;
32649;SDS011;19055;51.064;3.712;2022-09-09T02:21:14;5.15;;;1.95;;
32649;SDS011;19055;51.064;3.712;2022-09-09T02:23:42;6.28;;;1.85;;
32649;SDS011;19055;51.064;3.712;2022-09-09T02:26:12;13.98;;;2.30;;
32649;SDS011;19055;51.064;3.712;2022-09-09T02:28:46;7.32;;;1.88;;
32649;SDS011;19055;51.064;3.712;2022-09-09T02:31:17;5.15;;;1.92;;
32649;SDS011;19055;51.064;3.712;2022-09-09T02:33:47;10.48;;;4.43;;
32649;SDS011;19055;51.064;3.712;2022-09-09T02:36:18;6.70;;;1.92;;
32649;SDS011;19055;51.064;3.712;2022-09-09T02:38:48;6.75;;;1.80;;
32649;SDS011;19055;51.064;3.712;2022-09-09T02:41:18;6.95;;;2.15;;
32649;SDS011;19055;51.064;3.712;2022-09-09T02:43:56;8.50;;;2.67;;
32649;SDS011;19055;51.064;3.712;2022-09-09T02:52:38;7.10;;;2.65;;
32649;SDS011;19055;51.064;3.712;2022-09-09T02:55:23;11.38;;;2.53;;
32649;SDS011;19055;51.064;3.712;2022-09-09T02:58:11;11.50;;;2.72;;
32649;SDS011;19055;51.064;3.712;2022-09-09T03:00:44;8.70;;;2.85;;
32649;SDS011;19055;51.064;3.712;2022-09-09T03:03:12;12.55;;;2.50;;
32649;SDS011;19055;51.064;3.712;2022-09-09T03:05:38;12.38;;;2.53;;
32649;SDS011;19055;51.064;3.712;2022-09-09T03:08:05;9.23;;;2.55;;
32649;SDS011;19055;51.064;3.712;2022-09-09T03:10:32;12.55;;;2.80;;
32649;SDS011;19055;51.064;3.712;2022-09-09T03:12:58;10.20;;;2.63;;
32649;SDS011;19055;51.064;3.712;2022-09-09T03:15:26;7.68;;;2.05;;
32649;SDS011;19055;51.064;3.712;2022-09-09T03:17:55;10.73;;;3.05;;
32649;SDS011;19055;51.064;3.712;2022-09-09T03:20:23;12.55;;;2.60;;
32649;SDS011;19055;51.064;3.712;2022-09-09T03:22:53;8.25;;;2.50;;
32649;SDS011;19055;51.064;3.712;2022-09-09T03:25:20;15.85;;;2.75;;
32649;SDS011;19055;51.064;3.712;2022-09-09T03:27:49;12.93;;;3.10;;
32649;SDS011;19055;51.064;3.712;2022-09-09T03:30:18;7.82;;;2.45;;
32649;SDS011;19055;51.064;3.712;2022-09-09T03:32:44;11.27;;;2.47;;
32649;SDS011;19055;51.064;3.712;2022-09-09T03:35:10;9.10;;;2.75;;
32649;SDS011;19055;51.064;3.712;2022-09-09T03:37:36;12.38;;;2.47;;
32649;SDS011;19055;51.064;3.712;2022-09-09T03:40:04;13.43;;;3.05;;
32649;SDS011;19055;51.064;3.712;2022-09-09T03:42:31;10.13;;;2.30;;
32649;SDS011;19055;51.064;3.712;2022-09-09T03:44:58;11.93;;;2.67;;
32649;SDS011;19055;51.064;3.712;2022-09-09T03:47:25;10.07;;;2.90;;
32649;SDS011;19055;51.064;3.712;2022-09-09T03:49:56;9.35;;;2.42;;
32649;SDS011;19055;51.064;3.712;2022-09-09T03:52:21;9.82;;;2.53;;
32649;SDS011;19055;51.064;3.712;2022-09-09T03:54:51;11.07;;;2.55;;
32649;SDS011;19055;51.064;3.712;2022-09-09T03:57:18;9.77;;;2.42;;
32649;SDS011;19055;51.064;3.712;2022-09-09T03:59:44;14.55;;;2.40;;
32649;SDS011;19055;51.064;3.712;2022-09-09T04:02:11;11.02;;;2.20;;
32649;SDS011;19055;51.064;3.712;2022-09-09T04:04:36;12.80;;;2.65;;
32649;SDS011;19055;51.064;3.712;2022-09-09T04:07:03;9.82;;;2.65;;
32649;SDS011;19055;51.064;3.712;2022-09-09T04:09:32;12.70;;;3.25;;
32649;SDS011;19055;51.064;3.712;2022-09-09T04:11:58;13.63;;;3.00;;
32649;SDS011;19055;51.064;3.712;2022-09-09T04:14:24;10.02;;;2.45;;
32649;SDS011;19055;51.064;3.712;2022-09-09T04:16:54;12.48;;;2.47;;
32649;SDS011;19055;51.064;3.712;2022-09-09T04:19:21;12.10;;;2.97;;
32649;SDS011;19055;51.064;3.712;2022-09-09T04:21:47;12.15;;;2.83;;
32649;SDS011;19055;51.064;3.712;2022-09-09T04:24:17;12.15;;;2.92;;
32649;SDS011;19055;51.064;3.712;2022-09-09T04:26:43;12.55;;;3.00;;
32649;SDS011;19055;51.064;3.712;2022-09-09T04:29:09;9.48;;;2.67;;
32649;SDS011;19055;51.064;3.712;2022-09-09T04:31:35;9.82;;;2.60;;
32649;SDS011;19055;51.064;3.712;2022-09-09T04:34:02;9.98;;;2.50;;
32649;SDS011;19055;51.064;3.712;2022-09-09T04:36:31;10.65;;;2.65;;
32649;SDS011;19055;51.064;3.712;2022-09-09T04:39:00;13.00;;;2.65;;
32649;SDS011;19055;51.064;3.712;2022-09-09T04:41:26;14.38;;;3.13;;
32649;SDS011;19055;51.064;3.712;2022-09-09T04:43:53;10.32;;;2.58;;
32649;SDS011;19055;51.064;3.712;2022-09-09T04:46:20;11.85;;;2.50;;
32649;SDS011;19055;51.064;3.712;2022-09-09T04:48:48;10.90;;;2.65;;
32649;SDS011;19055;51.064;3.712;2022-09-09T04:51:15;11.80;;;3.58;;
32649;SDS011;19055;51.064;3.712;2022-09-09T04:53:43;12.20;;;2.85;;
32649;SDS011;19055;51.064;3.712;2022-09-09T04:56:14;11.30;;;2.97;;
32649;SDS011;19055;51.064;3.712;2022-09-09T04:58:47;10.15;;;2.83;;
32649;SDS011;19055;51.064;3.712;2022-09-09T05:01:15;11.57;;;2.58;;
32649;SDS011;19055;51.064;3.712;2022-09-09T05:03:44;13.18;;;2.97;;
32649;SDS011;19055;51.064;3.712;2022-09-09T05:06:15;11.98;;;3.05;;
32649;SDS011;19055;51.064;3.712;2022-09-09T05:08:44;9.13;;;2.88;;
32649;SDS011;19055;51.064;3.712;2022-09-09T05:11:29;10.25;;;3.13;;
32649;SDS011;19055;51.064;3.712;2022-09-09T05:14:35;15.65;;;3.55;;
32649;SDS011;19055;51.064;3.712;2022-09-09T05:17:03;10.77;;;3.35;;
32649;SDS011;19055;51.064;3.712;2022-09-09T05:19:30;10.98;;;3.15;;
32649;SDS011;19055;51.064;3.712;2022-09-09T05:21:56;11.82;;;3.40;;
32649;SDS011;19055;51.064;3.712;2022-09-09T05:24:33;13.82;;;4.00;;
32649;SDS011;19055;51.064;3.712;2022-09-09T05:26:59;13.15;;;3.40;;
32649;SDS011;19055;51.064;3.712;2022-09-09T05:29:27;12.50;;;3.03;;
32649;SDS011;19055;51.064;3.712;2022-09-09T05:31:55;15.55;;;3.25;;
32649;SDS011;19055;51.064;3.712;2022-09-09T05:34:21;11.88;;;3.03;;
32649;SDS011;19055;51.064;3.712;2022-09-09T05:36:48;6.60;;;2.97;;
32649;SDS011;19055;51.064;3.712;2022-09-09T05:39:15;13.82;;;3.03;;
32649;SDS011;19055;51.064;3.712;2022-09-09T05:41:41;9.43;;;3.00;;
32649;SDS011;19055;51.064;3.712;2022-09-09T05:44:07;11.88;;;3.50;;
32649;SDS011;19055;51.064;3.712;2022-09-09T05:46:37;13.63;;;3.55;;
32649;SDS011;19055;51.064;3.712;2022-09-09T05:49:03;15.35;;;3.50;;
32649;SDS011;19055;51.064;3.712;2022-09-09T05:51:31;11.40;;;3.25;;
32649;SDS011;19055;51.064;3.712;2022-09-09T05:54:02;11.77;;;3.10;;
32649;SDS011;19055;51.064;3.712;2022-09-09T05:56:32;10.80;;;3.15;;
32649;SDS011;19055;51.064;3.712;2022-09-09T05:58:58;14.40;;;3.65;;
32649;SDS011;19055;51.064;3.712;2022-09-09T06:01:27;13.05;;;3.05;;
32649;SDS011;19055;51.064;3.712;2022-09-09T06:03:56;11.32;;;3.25;;
32649;SDS011;19055;51.064;3.712;2022-09-09T06:06:23;10.90;;;3.50;;
32649;SDS011;19055;51.064;3.712;2022-09-09T06:08:54;9.07;;;3.42;;
32649;SDS011;19055;51.064;3.712;2022-09-09T06:13:59;18.73;;;3.88;;
32649;SDS011;19055;51.064;3.712;2022-09-09T06:16:27;19.73;;;3.80;;
32649;SDS011;19055;51.064;3.712;2022-09-09T06:18:54;21.33;;;4.10;;
32649;SDS011;19055;51.064;3.712;2022-09-09T06:21:24;10.05;;;3.17;;
32649;SDS011;19055;51.064;3.712;2022-09-09T06:23:50;18.98;;;3.88;;
32649;SDS011;19055;51.064;3.712;2022-09-09T06:26:20;12.00;;;3.70;;
32649;SDS011;19055;51.064;3.712;2022-09-09T06:28:50;8.95;;;3.30;;
32649;SDS011;19055;51.064;3.712;2022-09-09T06:31:19;13.40;;;3.88;;
32649;SDS011;19055;51.064;3.712;2022-09-09T06:33:48;17.17;;;3.83;;
32649;SDS011;19055;51.064;3.712;2022-09-09T06:36:16;15.50;;;4.20;;
32649;SDS011;19055;51.064;3.712;2022-09-09T06:38:44;16.10;;;3.53;;
32649;SDS011;19055;51.064;3.712;2022-09-09T06:41:12;13.82;;;3.90;;
32649;SDS011;19055;51.064;3.712;2022-09-09T06:43:40;17.88;;;3.88;;
32649;SDS011;19055;51.064;3.712;2022-09-09T06:46:08;15.52;;;3.83;;
32649;SDS011;19055;51.064;3.712;2022-09-09T06:48:54;18.35;;;4.32;;
32649;SDS011;19055;51.064;3.712;2022-09-09T06:51:28;13.45;;;3.85;;
32649;SDS011;19055;51.064;3.712;2022-09-09T06:53:56;15.20;;;3.83;;
32649;SDS011;19055;51.064;3.712;2022-09-09T06:56:31;9.13;;;3.05;;
32649;SDS011;19055;51.064;3.712;2022-09-09T06:59:02;16.58;;;4.10;;
32649;SDS011;19055;51.064;3.712;2022-09-09T07:01:31;7.85;;;2.50;;
32649;SDS011;19055;51.064;3.712;2022-09-09T07:04:01;11.25;;;3.30;;
32649;SDS011;19055;51.064;3.712;2022-09-09T07:06:33;10.95;;;2.67;;
32649;SDS011;19055;51.064;3.712;2022-09-09T07:09:09;13.52;;;2.80;;
32649;SDS011;19055;51.064;3.712;2022-09-09T07:11:42;10.23;;;2.90;;
32649;SDS011;19055;51.064;3.712;2022-09-09T07:14:14;7.57;;;2.50;;
32649;SDS011;19055;51.064;3.712;2022-09-09T07:16:43;13.15;;;3.05;;
32649;SDS011;19055;51.064;3.712;2022-09-09T07:19:10;14.00;;;3.05;;
32649;SDS011;19055;51.064;3.712;2022-09-09T07:21:37;9.40;;;2.55;;
32649;SDS011;19055;51.064;3.712;2022-09-09T07:24:03;10.13;;;2.78;;
32649;SDS011;19055;51.064;3.712;2022-09-09T07:26:32;10.35;;;2.97;;
32649;SDS011;19055;51.064;3.712;2022-09-09T07:29:00;7.95;;;2.75;;
32649;SDS011;19055;51.064;3.712;2022-09-09T07:31:28;9.93;;;2.92;;
32649;SDS011;19055;51.064;3.712;2022-09-09T07:33:57;12.00;;;2.92;;
32649;SDS011;19055;51.064;3.712;2022-09-09T07:36:24;10.13;;;2.67;;
32649;SDS011;19055;51.064;3.712;2022-09-09T07:38:54;13.63;;;3.10;;
32649;SDS011;19055;51.064;3.712;2022-09-09T07:41:23;11.52;;;3.03;;
32649;SDS011;19055;51.064;3.712;2022-09-09T07:43:51;13.02;;;2.90;;
32649;SDS011;19055;51.064;3.712;2022-09-09T07:46:20;10.57;;;2.75;;
32649;SDS011;19055;51.064;3.712;2022-09-09T07:48:49;11.15;;;2.88;;
32649;SDS011;19055;51.064;3.712;2022-09-09T07:51:17;8.70;;;3.08;;
32649;SDS011;19055;51.064;3.712;2022-09-09T07:53:46;9.00;;;2.85;;
32649;SDS011;19055;51.064;3.712;2022-09-09T07:56:13;12.27;;;3.00;;
32649;SDS011;19055;51.064;3.712;2022-09-09T07:58:44;9.73;;;2.97;;
32649;SDS011;19055;51.064;3.712;2022-09-09T08:01:15;11.73;;;2.95;;
32649;SDS011;19055;51.064;3.712;2022-09-09T08:03:44;10.82;;;2.92;;
32649;SDS011;19055;51.064;3.712;2022-09-09T08:06:12;8.98;;;2.70;;
32649;SDS011;19055;51.064;3.712;2022-09-09T08:08:39;9.18;;;2.53;;
32649;SDS011;19055;51.064;3.712;2022-09-09T08:11:09;10.45;;;2.75;;
32649;SDS011;19055;51.064;3.712;2022-09-09T08:13:37;11.63;;;2.42;;
32649;SDS011;19055;51.064;3.712;2022-09-09T08:16:08;14.60;;;3.30;;
32649;SDS011;19055;51.064;3.712;2022-09-09T08:18:37;9.25;;;2.67;;
32649;SDS011;19055;51.064;3.712;2022-09-09T08:23:40;11.90;;;3.17;;
32649;SDS011;19055;51.064;3.712;2022-09-09T08:26:15;10.38;;;2.55;;
32649;SDS011;19055;51.064;3.712;2022-09-09T08:28:43;9.43;;;2.55;;
32649;SDS011;19055;51.064;3.712;2022-09-09T08:31:14;15.05;;;3.08;;
32649;SDS011;19055;51.064;3.712;2022-09-09T08:33:44;8.48;;;2.63;;
32649;SDS011;19055;51.064;3.712;2022-09-09T08:36:17;6.75;;;2.42;;
32649;SDS011;19055;51.064;3.712;2022-09-09T08:38:49;9.15;;;2.38;;
32649;SDS011;19055;51.064;3.712;2022-09-09T08:44:24;7.85;;;2.10;;
32649;SDS011;19055;51.064;3.712;2022-09-09T08:53:03;9.10;;;2.55;;
32649;SDS011;19055;51.064;3.712;2022-09-09T08:55:50;8.10;;;2.65;;
32649;SDS011;19055;51.064;3.712;2022-09-09T08:58:26;8.00;;;2.33;;
32649;SDS011;19055;51.064;3.712;2022-09-09T09:11:55;8.98;;;2.35;;
32649;SDS011;19055;51.064;3.712;2022-09-09T09:14:30;4.70;;;2.55;;
32649;SDS011;19055;51.064;3.712;2022-09-09T09:17:03;10.48;;;2.88;;
32649;SDS011;19055;51.064;3.712;2022-09-09T09:19:32;5.50;;;2.25;;
32649;SDS011;19055;51.064;3.712;2022-09-09T09:22:10;9.05;;;2.85;;
32649;SDS011;19055;51.064;3.712;2022-09-09T09:27:32;7.00;;;2.38;;
32649;SDS011;19055;51.064;3.712;2022-09-09T09:30:13;10.80;;;2.60;;
32649;SDS011;19055;51.064;3.712;2022-09-09T09:35:20;7.63;;;2.30;;
32649;SDS011;19055;51.064;3.712;2022-09-09T09:37:46;9.35;;;2.70;;
32649;SDS011;19055;51.064;3.712;2022-09-09T09:40:14;8.00;;;2.00;;
32649;SDS011;19055;51.064;3.712;2022-09-09T09:45:33;7.50;;;2.45;;
32649;SDS011;19055;51.064;3.712;2022-09-09T09:48:02;6.07;;;1.98;;
32649;SDS011;19055;51.064;3.712;2022-09-09T09:50:31;4.65;;;2.10;;
32649;SDS011;19055;51.064;3.712;2022-09-09T09:53:03;6.40;;;1.85;;
32649;SDS011;19055;51.064;3.712;2022-09-09T09:55:35;4.72;;;1.80;;
32649;SDS011;19055;51.064;3.712;2022-09-09T09:58:03;5.60;;;2.13;;
32649;SDS011;19055;51.064;3.712;2022-09-09T10:00:30;5.95;;;2.22;;
32649;SDS011;19055;51.064;3.712;2022-09-09T10:03:12;5.32;;;2.17;;
32649;SDS011;19055;51.064;3.712;2022-09-09T10:05:52;7.47;;;2.53;;
32649;SDS011;19055;51.064;3.712;2022-09-09T10:08:18;7.10;;;1.98;;
32649;SDS011;19055;51.064;3.712;2022-09-09T10:21:56;8.38;;;2.60;;
32649;SDS011;19055;51.064;3.712;2022-09-09T10:33:10;5.20;;;1.80;;
32649;SDS011;19055;51.064;3.712;2022-09-09T10:35:50;7.15;;;2.05;;
32649;SDS011;19055;51.064;3.712;2022-09-09T10:38:40;3.70;;;1.67;;
32649;SDS011;19055;51.064;3.712;2022-09-09T10:47:07;4.18;;;1.52;;
32649;SDS011;19055;51.064;3.712;2022-09-09T10:52:52;5.20;;;2.08;;
32649;SDS011;19055;51.064;3.712;2022-09-09T10:55:25;5.68;;;2.10;;
32649;SDS011;19055;51.064;3.712;2022-09-09T10:57:57;4.63;;;1.60;;
32649;SDS011;19055;51.064;3.712;2022-09-09T11:00:29;5.45;;;1.77;;
32649;SDS011;19055;51.064;3.712;2022-09-09T11:03:05;6.32;;;2.47;;
32649;SDS011;19055;51.064;3.712;2022-09-09T11:08:11;18.95;;;10.90;;
32649;SDS011;19055;51.064;3.712;2022-09-09T11:10:50;6.15;;;2.83;;
32649;SDS011;19055;51.064;3.712;2022-09-09T11:13:39;7.15;;;2.55;;
32649;SDS011;19055;51.064;3.712;2022-09-09T11:19:16;4.63;;;2.03;;
32649;SDS011;19055;51.064;3.712;2022-09-09T11:22:12;5.80;;;1.63;;
32649;SDS011;19055;51.064;3.712;2022-09-09T11:27:26;7.63;;;2.35;;
32649;SDS011;19055;51.064;3.712;2022-09-09T11:38:19;6.07;;;1.63;;
32649;SDS011;19055;51.064;3.712;2022-09-09T11:40:55;5.25;;;1.52;;
32649;SDS011;19055;51.064;3.712;2022-09-09T11:43:31;3.72;;;1.20;;
32649;SDS011;19055;51.064;3.712;2022-09-09T11:46:03;4.85;;;1.33;;
32649;SDS011;19055;51.064;3.712;2022-09-09T11:48:36;3.05;;;1.10;;
32649;SDS011;19055;51.064;3.712;2022-09-09T11:51:09;3.72;;;1.50;;
32649;SDS011;19055;51.064;3.712;2022-09-09T11:53:47;2.80;;;1.10;;
32649;SDS011;19055;51.064;3.712;2022-09-09T11:56:24;2.60;;;1.10;;
32649;SDS011;19055;51.064;3.712;2022-09-09T11:59:34;4.75;;;1.83;;
32649;SDS011;19055;51.064;3.712;2022-09-09T12:04:30;3.67;;;1.58;;
32649;SDS011;19055;51.064;3.712;2022-09-09T12:06:59;2.95;;;1.42;;
32649;SDS011;19055;51.064;3.712;2022-09-09T12:14:38;5.35;;;1.52;;
32649;SDS011;19055;51.064;3.712;2022-09-09T12:19:40;5.65;;;1.27;;
32649;SDS011;19055;51.064;3.712;2022-09-09T12:25:13;5.72;;;1.40;;
32649;SDS011;19055;51.064;3.712;2022-09-09T12:27:54;4.55;;;2.03;;
32649;SDS011;19055;51.064;3.712;2022-09-09T12:31:00;7.07;;;2.10;;
32649;SDS011;19055;51.064;3.712;2022-09-09T12:33:18;5.43;;;1.45;;
32649;SDS011;19055;51.064;3.712;2022-09-09T12:35:46;5.07;;;1.75;;
32649;SDS011;19055;51.064;3.712;2022-09-09T12:40:55;4.20;;;1.65;;
32649;SDS011;19055;51.064;3.712;2022-09-09T12:43:23;5.63;;;1.98;;
32649;SDS011;19055;51.064;3.712;2022-09-09T12:45:51;3.05;;;1.50;;
32649;SDS011;19055;51.064;3.712;2022-09-09T12:48:24;3.97;;;1.83;;
32649;SDS011;19055;51.064;3.712;2022-09-09T12:50:55;4.28;;;1.63;;
32649;SDS011;19055;51.064;3.712;2022-09-09T12:55:52;5.70;;;1.80;;
32649;SDS011;19055;51.064;3.712;2022-09-09T12:58:22;5.57;;;1.95;;
32649;SDS011;19055;51.064;3.712;2022-09-09T13:00:53;3.65;;;1.63;;
32649;SDS011;19055;51.064;3.712;2022-09-09T13:03:25;5.88;;;1.52;;
32649;SDS011;19055;51.064;3.712;2022-09-09T13:05:51;5.38;;;1.63;;
32649;SDS011;19055;51.064;3.712;2022-09-09T13:08:19;2.65;;;1.50;;
32649;SDS011;19055;51.064;3.712;2022-09-09T13:10:54;4.00;;;1.50;;
32649;SDS011;19055;51.064;3.712;2022-09-09T13:13:37;3.78;;;1.77;;
32649;SDS011;19055;51.064;3.712;2022-09-09T13:16:05;5.80;;;1.92;;
32649;SDS011;19055;51.064;3.712;2022-09-09T13:18:43;6.97;;;2.15;;
32649;SDS011;19055;51.064;3.712;2022-09-09T13:21:09;3.70;;;1.65;;
32649;SDS011;19055;51.064;3.712;2022-09-09T13:23:36;4.85;;;1.50;;
32649;SDS011;19055;51.064;3.712;2022-09-09T13:26:03;3.60;;;1.60;;
32649;SDS011;19055;51.064;3.712;2022-09-09T13:28:33;6.95;;;2.13;;
32649;SDS011;19055;51.064;3.712;2022-09-09T13:31:00;4.82;;;2.00;;
32649;SDS011;19055;51.064;3.712;2022-09-09T13:33:34;3.95;;;1.40;;
32649;SDS011;19055;51.064;3.712;2022-09-09T13:36:08;4.90;;;1.65;;
32649;SDS011;19055;51.064;3.712;2022-09-09T13:38:40;2.88;;;1.60;;
32649;SDS011;19055;51.064;3.712;2022-09-09T13:41:23;7.95;;;1.65;;
32649;SDS011;19055;51.064;3.712;2022-09-09T13:43:51;4.45;;;1.50;;
32649;SDS011;19055;51.064;3.712;2022-09-09T13:46:24;5.35;;;1.73;;
32649;SDS011;19055;51.064;3.712;2022-09-09T13:51:28;6.30;;;1.70;;
32649;SDS011;19055;51.064;3.712;2022-09-09T13:54:05;3.67;;;1.50;;
32649;SDS011;19055;51.064;3.712;2022-09-09T13:56:34;3.95;;;1.75;;
32649;SDS011;19055;51.064;3.712;2022-09-09T13:59:02;4.43;;;1.63;;
32649;SDS011;19055;51.064;3.712;2022-09-09T14:01:29;5.13;;;2.17;;
32649;SDS011;19055;51.064;3.712;2022-09-09T14:03:56;5.82;;;1.40;;
32649;SDS011;19055;51.064;3.712;2022-09-09T14:06:22;5.15;;;1.58;;
32649;SDS011;19055;51.064;3.712;2022-09-09T14:08:49;7.03;;;1.80;;
32649;SDS011;19055;51.064;3.712;2022-09-09T14:11:16;4.38;;;1.30;;
32649;SDS011;19055;51.064;3.712;2022-09-09T14:13:43;4.43;;;1.58;;
32649;SDS011;19055;51.064;3.712;2022-09-09T14:16:09;5.22;;;1.80;;
32649;SDS011;19055;51.064;3.712;2022-09-09T14:18:35;4.07;;;1.23;;
32649;SDS011;19055;51.064;3.712;2022-09-09T14:21:03;3.60;;;1.27;;
32649;SDS011;19055;51.064;3.712;2022-09-09T14:23:28;4.30;;;1.63;;
32649;SDS011;19055;51.064;3.712;2022-09-09T14:25:55;3.58;;;1.45;;
32649;SDS011;19055;51.064;3.712;2022-09-09T14:28:21;3.97;;;1.55;;
32649;SDS011;19055;51.064;3.712;2022-09-09T14:30:46;5.63;;;1.42;;
32649;SDS011;19055;51.064;3.712;2022-09-09T14:33:14;3.75;;;1.40;;
32649;SDS011;19055;51.064;3.712;2022-09-09T14:35:41;3.53;;;1.67;;
32649;SDS011;19055;51.064;3.712;2022-09-09T14:38:08;5.65;;;1.50;;
32649;SDS011;19055;51.064;3.712;2022-09-09T14:40:34;3.25;;;2.08;;
32649;SDS011;19055;51.064;3.712;2022-09-09T14:43:02;5.47;;;1.50;;
32649;SDS011;19055;51.064;3.712;2022-09-09T14:45:28;4.75;;;1.73;;
32649;SDS011;19055;51.064;3.712;2022-09-09T14:47:54;4.22;;;1.65;;
32649;SDS011;19055;51.064;3.712;2022-09-09T14:50:20;5.25;;;1.50;;
32649;SDS011;19055;51.064;3.712;2022-09-09T14:52:47;3.33;;;1.40;;
32649;SDS011;19055;51.064;3.712;2022-09-09T14:55:13;1.52;;;1.17;;
32649;SDS011;19055;51.064;3.712;2022-09-09T14:57:40;2.90;;;1.33;;
32649;SDS011;19055;51.064;3.712;2022-09-09T15:00:06;3.25;;;1.13;;
32649;SDS011;19055;51.064;3.712;2022-09-09T15:02:33;3.05;;;1.35;;
32649;SDS011;19055;51.064;3.712;2022-09-09T15:04:59;3.10;;;1.30;;
32649;SDS011;19055;51.064;3.712;2022-09-09T15:07:26;4.22;;;1.70;;
32649;SDS011;19055;51.064;3.712;2022-09-09T15:09:53;4.93;;;1.88;;
32649;SDS011;19055;51.064;3.712;2022-09-09T15:12:19;3.35;;;1.70;;
32649;SDS011;19055;51.064;3.712;2022-09-09T15:14:46;5.03;;;1.73;;
32649;SDS011;19055;51.064;3.712;2022-09-09T15:17:13;3.78;;;1.65;;
32649;SDS011;19055;51.064;3.712;2022-09-09T15:19:39;5.15;;;1.80;;
32649;SDS011;19055;51.064;3.712;2022-09-09T15:22:05;3.58;;;1.90;;
32649;SDS011;19055;51.064;3.712;2022-09-09T15:24:32;3.50;;;1.50;;
32649;SDS011;19055;51.064;3.712;2022-09-09T15:26:58;5.25;;;1.95;;
32649;SDS011;19055;51.064;3.712;2022-09-09T15:29:25;5.93;;;2.22;;
32649;SDS011;19055;51.064;3.712;2022-09-09T15:31:51;4.38;;;1.98;;
32649;SDS011;19055;51.064;3.712;2022-09-09T15:34:18;5.75;;;2.20;;
32649;SDS011;19055;51.064;3.712;2022-09-09T15:36:44;6.18;;;1.85;;
32649;SDS011;19055;51.064;3.712;2022-09-09T15:39:12;4.35;;;2.20;;
32649;SDS011;19055;51.064;3.712;2022-09-09T15:41:41;9.75;;;2.10;;
32649;SDS011;19055;51.064;3.712;2022-09-09T15:44:08;3.22;;;1.40;;
32649;SDS011;19055;51.064;3.712;2022-09-09T15:46:40;4.50;;;1.63;;
32649;SDS011;19055;51.064;3.712;2022-09-09T15:49:17;3.83;;;1.70;;
32649;SDS011;19055;51.064;3.712;2022-09-09T15:51:54;4.78;;;1.48;;
32649;SDS011;19055;51.064;3.712;2022-09-09T15:54:22;2.50;;;1.42;;
32649;SDS011;19055;51.064;3.712;2022-09-09T15:56:51;5.63;;;1.88;;
32649;SDS011;19055;51.064;3.712;2022-09-09T15:59:21;5.95;;;1.83;;
32649;SDS011;19055;51.064;3.712;2022-09-09T16:01:48;3.28;;;1.60;;
32649;SDS011;19055;51.064;3.712;2022-09-09T16:04:16;3.58;;;1.77;;
32649;SDS011;19055;51.064;3.712;2022-09-09T16:07:09;2.92;;;1.75;;
32649;SDS011;19055;51.064;3.712;2022-09-09T16:09:34;5.95;;;1.92;;
32649;SDS011;19055;51.064;3.712;2022-09-09T16:12:02;9.45;;;2.17;;
32649;SDS011;19055;51.064;3.712;2022-09-09T16:14:31;5.97;;;2.38;;
32649;SDS011;19055;51.064;3.712;2022-09-09T16:17:00;4.43;;;1.90;;
32649;SDS011;19055;51.064;3.712;2022-09-09T16:19:27;5.95;;;2.05;;
32649;SDS011;19055;51.064;3.712;2022-09-09T16:21:53;7.45;;;2.40;;
32649;SDS011;19055;51.064;3.712;2022-09-09T16:24:19;3.92;;;1.80;;
32649;SDS011;19055;51.064;3.712;2022-09-09T16:26:46;3.60;;;1.90;;
32649;SDS011;19055;51.064;3.712;2022-09-09T16:29:16;6.70;;;2.22;;
32649;SDS011;19055;51.064;3.712;2022-09-09T16:31:43;4.78;;;2.08;;
32649;SDS011;19055;51.064;3.712;2022-09-09T16:34:11;6.47;;;2.00;;
32649;SDS011;19055;51.064;3.712;2022-09-09T16:36:38;7.03;;;2.35;;
32649;SDS011;19055;51.064;3.712;2022-09-09T16:39:09;5.60;;;2.22;;
32649;SDS011;19055;51.064;3.712;2022-09-09T16:41:39;4.47;;;2.50;;
32649;SDS011;19055;51.064;3.712;2022-09-09T16:44:07;7.15;;;2.58;;
32649;SDS011;19055;51.064;3.712;2022-09-09T16:46:35;6.70;;;2.40;;
32649;SDS011;19055;51.064;3.712;2022-09-09T16:49:10;5.60;;;2.15;;
32649;SDS011;19055;51.064;3.712;2022-09-09T16:51:39;8.18;;;2.50;;
32649;SDS011;19055;51.064;3.712;2022-09-09T16:54:07;7.43;;;3.00;;
32649;SDS011;19055;51.064;3.712;2022-09-09T16:56:37;5.45;;;2.42;;
32649;SDS011;19055;51.064;3.712;2022-09-09T16:59:07;9.63;;;3.42;;
32649;SDS011;19055;51.064;3.712;2022-09-09T17:01:37;6.47;;;2.67;;
32649;SDS011;19055;51.064;3.712;2022-09-09T17:04:12;7.50;;;2.67;;
32649;SDS011;19055;51.064;3.712;2022-09-09T17:06:41;16.60;;;4.70;;
32649;SDS011;19055;51.064;3.712;2022-09-09T17:09:10;14.02;;;5.00;;
32649;SDS011;19055;51.064;3.712;2022-09-09T17:11:39;9.70;;;4.10;;
32649;SDS011;19055;51.064;3.712;2022-09-09T17:14:07;8.88;;;3.42;;
32649;SDS011;19055;51.064;3.712;2022-09-09T17:16:35;6.60;;;3.53;;
32649;SDS011;19055;51.064;3.712;2022-09-09T17:19:04;6.38;;;3.10;;
32649;SDS011;19055;51.064;3.712;2022-09-09T17:21:30;6.68;;;3.13;;
32649;SDS011;19055;51.064;3.712;2022-09-09T17:23:57;9.55;;;4.10;;
32649;SDS011;19055;51.064;3.712;2022-09-09T17:26:25;10.73;;;4.45;;
32649;SDS011;19055;51.064;3.712;2022-09-09T17:28:53;12.82;;;4.57;;
32649;SDS011;19055;51.064;3.712;2022-09-09T17:31:20;8.55;;;3.35;;
32649;SDS011;19055;51.064;3.712;2022-09-09T17:33:47;8.00;;;3.80;;
32649;SDS011;19055;51.064;3.712;2022-09-09T17:36:16;12.70;;;3.30;;
32649;SDS011;19055;51.064;3.712;2022-09-09T17:38:43;10.73;;;3.05;;
32649;SDS011;19055;51.064;3.712;2022-09-09T17:41:11;13.32;;;3.58;;
32649;SDS011;19055;51.064;3.712;2022-09-09T17:43:39;9.13;;;3.00;;
32649;SDS011;19055;51.064;3.712;2022-09-09T17:48:36;6.82;;;3.15;;
32649;SDS011;19055;51.064;3.712;2022-09-09T17:51:03;8.77;;;3.22;;
32649;SDS011;19055;51.064;3.712;2022-09-09T17:53:30;12.68;;;3.83;;
32649;SDS011;19055;51.064;3.712;2022-09-09T17:56:02;9.48;;;3.58;;